• Join FlightAware (Why Join?)
  • Login
  • US Flag 
06:05AM EDT


 

Airport Tracker/Info


-or-


 

Live Flight TrackerFlight Track Log ✈ SWA1044 ✈ 12-Apr-2013 ✈ KMSY - KLAS

Flight Track Log - Related Links

Times and Time Zones

All times are in EDT time to prevent confusion due to time zone crossing. See the SWA1044 flight status page for this flight to view local times or setup timezone preferences in your user account.

Time Position Orientation Groundspeed Altitude Reporting Facility
EDT Latitude Longitude Course Direction KTS MPH feet Rate Location/Type
12:13PM 30.0247 -90.3383 301° West 198 228 2,700  Level Houston Center
12:13PM 30.0339 -90.3442 331° Northwest 212 244 3,100 2,040 Climbing Houston Center
12:14PM 30.0778 -90.3747 329° Northwest 241 277 4,800 2,460 Climbing Houston Center
12:14PM 30.0983 -90.3972 317° Northwest 232 267 5,700 3,240 Climbing Houston Center
12:15PM 30.1456 -90.4628 310° West 255 293 9,400 2,820 Climbing Houston Center
12:16PM 30.1978 -90.5281 313° West 276 318 11,600 2,100 Climbing Houston Center
12:17PM 30.2675 -90.6078 315° West 346 398 13,800 2,460 Climbing Houston Center
12:18PM 30.3397 -90.6889 316° Northwest 360 414 16,800 2,460 Climbing Houston Center
12:19PM 30.4156 -90.7731 316° Northwest 373 429 19,000 2,220 Climbing Houston Center
12:20PM 30.4972 -90.8592 318° Northwest 391 450 21,400 1,920 Climbing Houston Center
12:21PM 30.5975 -90.9644 318° Northwest 403 464 23,000 1,500 Climbing Houston Center
12:22PM 30.6619 -91.0697 305° West 399 459 24,500 1,620 Climbing Houston Center
12:23PM 30.7100 -91.1850 296° West 398 458 26,400 1,740 Climbing Houston Center
12:24PM 30.7664 -91.3172 296° West 411 473 28,100 1,740 Climbing Houston Center
12:25PM 30.8175 -91.4403 296° West 421 484 30,000 1,800 Climbing Houston Center
12:26PM 30.8683 -91.5606 296° West 415 478 31,900 1,740 Climbing Houston Center
12:28PM 30.9156 -91.6792 295° West 405 466 33,700 1,560 Climbing Houston Center
12:29PM 30.9603 -91.7972 294° West 399 459 35,200 1,440 Climbing Houston Center
12:30PM 31.0139 -91.9378 294° West 395 455 36,700 960 Climbing Houston Center
12:31PM 31.0517 -92.0411 293° West 396 456 37,300 600 Climbing Houston Center
12:32PM 31.1056 -92.1842 294° West 403 464 38,000 300 Climbing Houston Center
12:33PM 31.1494 -92.3025 293° West 402 463 38,000  Level Houston Center
12:34PM 31.1933 -92.4217 293° West 400 460 38,000  Level Houston Center
12:35PM 31.2375 -92.5422 293° West 404 465 38,000  Level Houston Center
12:36PM 31.2839 -92.6625 294° West 406 467 38,000  Level Houston Center
12:37PM 31.3283 -92.7833 293° West 406 467 38,000  Level Houston Center
12:38PM 31.3811 -92.9253 294° West 400 460 38,000  Level Houston Center
12:39PM 31.4239 -93.0444 293° West 399 459 38,000  Level Houston Center
12:40PM 31.4675 -93.1622 293° West 397 457 38,000  Level Houston Center
12:41PM 31.5117 -93.2864 293° West 395 455 38,000  Level Houston Center
12:42PM 31.5553 -93.4044 293° West 396 456 38,000  Level Houston Center
12:43PM 31.5975 -93.5231 293° West 396 456 38,000  Level Houston Center
12:44PM 31.6419 -93.6444 293° West 395 455 38,000  Level Houston Center
12:44PM 31.6597 -93.6964 292° West 397 457 38,000  Level Fort Worth Center
12:45PM 31.7006 -93.8144 292° West 397 457 38,000  Level Fort Worth Center
12:46PM 31.7436 -93.9347 293° West 397 457 38,000  Level Fort Worth Center
12:47PM 31.7844 -94.0506 293° West 392 451 38,000  Level Fort Worth Center
12:48PM 31.8272 -94.1689 293° West 392 451 38,000  Level Fort Worth Center
12:49PM 31.8697 -94.2872 293° West 392 451 38,000  Level Fort Worth Center
12:50PM 31.9103 -94.4056 292° West 392 451 38,000  Level Fort Worth Center
12:51PM 31.9528 -94.5242 293° West 392 451 38,000  Level Fort Worth Center
12:52PM 31.9931 -94.6431 292° West 392 451 38,000  Level Fort Worth Center
12:53PM 32.0353 -94.7617 293° West 392 451 38,000  Level Fort Worth Center
12:54PM 32.0753 -94.8831 291° West 392 451 38,000  Level Fort Worth Center
12:55PM 32.1172 -94.9997 293° West 392 451 38,000  Level Fort Worth Center
12:56PM 32.1592 -95.1189 293° West 392 451 38,000  Level Fort Worth Center
12:57PM 32.1989 -95.2381 292° West 392 451 38,000  Level Fort Worth Center
12:58PM 32.2383 -95.3600 291° West 392 451 38,000  Level Fort Worth Center
12:59PM 32.2778 -95.4794 291° West 392 451 38,000  Level Fort Worth Center
01:00PM 32.3194 -95.6017 292° West 392 451 38,000  Level Fort Worth Center
01:01PM 32.3586 -95.7239 291° West 392 451 38,000  Level Fort Worth Center
01:02PM 32.4019 -95.8411 294° West 392 451 38,000  Level Fort Worth Center
01:03PM 32.4453 -95.9733 291° West 391 450 38,000  Level Fort Worth Center
01:04PM 32.4861 -96.0958 292° West 391 450 38,000  Level Fort Worth Center
01:05PM 32.5250 -96.2136 291° West 396 456 38,000  Level Fort Worth Center
01:06PM 32.5658 -96.3361 292° West 391 450 38,000  Level Fort Worth Center
01:07PM 32.6042 -96.4542 291° West 391 450 38,000  Level Fort Worth Center
01:08PM 32.6428 -96.5769 291° West 391 450 38,000  Level Fort Worth Center
01:09PM 32.6831 -96.7000 291° West 391 450 38,000  Level Fort Worth Center
01:10PM 32.7214 -96.8208 291° West 391 450 38,000  Level Fort Worth Center
01:11PM 32.7594 -96.9342 292° West 391 450 38,000  Level Fort Worth Center
01:12PM 32.7994 -97.0550 292° West 391 450 38,000  Level Fort Worth Center
01:13PM 32.8372 -97.1736 291° West 391 450 38,000  Level Fort Worth Center
01:14PM 32.8772 -97.2897 292° West 391 450 38,000  Level Fort Worth Center
01:15PM 32.9106 -97.3961 290° West 386 444 38,000  Level Fort Worth Center
01:16PM 32.9522 -97.5272 291° West 391 450 38,000  Level Fort Worth Center
01:17PM 32.9856 -97.6436 289° West 385 443 38,000  Level Fort Worth Center
01:18PM 33.0208 -97.7478 292° West 385 443 38,000  Level Fort Worth Center
01:19PM 33.0581 -97.8694 290° West 375 432 38,000  Level Fort Worth Center
01:20PM 33.0889 -97.9689 290° West 368 423 38,000  Level Fort Worth Center
01:21PM 33.1300 -98.0956 291° West 374 430 38,000  Level Fort Worth Center
01:22PM 33.1608 -98.1975 290° West 369 425 38,000  Level Fort Worth Center
01:23PM 33.2017 -98.3244 291° West 369 425 38,000  Level Fort Worth Center
01:24PM 33.2322 -98.4267 290° West 369 425 38,000  Level Fort Worth Center
01:25PM 33.2686 -98.5439 290° West 369 425 38,000  Level Fort Worth Center
01:26PM 33.3053 -98.6586 291° West 369 425 38,000  Level Fort Worth Center
01:27PM 33.3375 -98.7711 289° West 369 425 38,000  Level Fort Worth Center
01:28PM 33.3736 -98.8861 291° West 369 425 38,000  Level Fort Worth Center
01:29PM 33.4078 -99.0011 290° West 369 425 38,000  Level Fort Worth Center
01:30PM 33.4439 -99.1161 291° West 369 425 38,000  Level Fort Worth Center
01:31PM 33.4778 -99.2289 290° West 369 425 38,000  Level Fort Worth Center
01:32PM 33.5136 -99.3467 290° West 369 425 38,000  Level Fort Worth Center
01:33PM 33.5492 -99.4622 290° West 369 425 38,000  Level Fort Worth Center
01:34PM 33.5828 -99.5778 289° West 369 425 38,000  Level Fort Worth Center
01:35PM 33.6161 -99.6933 289° West 369 425 38,000  Level Fort Worth Center
01:36PM 33.6494 -99.8089 289° West 369 425 38,000  Level Fort Worth Center
01:37PM 33.6847 -99.9272 290° West 369 425 38,000  Level Fort Worth Center
01:38PM 33.7197 -100.0506 289° West 369 425 38,000  Level Fort Worth Center
01:39PM 33.7547 -100.1667 290° West 369 425 38,000  Level Fort Worth Center
01:40PM 33.7878 -100.2825 289° West 369 425 38,000  Level Fort Worth Center
01:41PM 33.8225 -100.4036 289° West 369 425 38,000  Level Fort Worth Center
01:42PM 33.8572 -100.5225 289° West 369 425 38,000  Level Fort Worth Center
01:43PM 33.8897 -100.6361 289° West 369 425 38,000  Level Fort Worth Center
01:44PM 33.9242 -100.7550 289° West 369 425 38,000  Level Fort Worth Center
01:45PM 33.9586 -100.8717 290° West 374 430 38,000  Level Fort Worth Center
01:46PM 33.9906 -100.9931 288° West 369 425 38,000  Level Fort Worth Center
01:47PM 34.0247 -101.1147 289° West 378 435 38,000  Level Fort Worth Center
01:48PM 34.0644 -101.2494 290° West 384 442 38,000  Level Fort Worth Center
01:49PM 34.0942 -101.3611 288° West 389 448 38,000  Level Fort Worth Center
01:50PM 34.1317 -101.4931 289° West 378 435 38,000  Level Fort Worth Center
01:51PM 34.1617 -101.6000 289° West 383 441 38,000  Level Fort Worth Center
01:52PM 34.1967 -101.7347 287° West 383 441 38,000  Level Fort Worth Center
01:53PM 34.2264 -101.8442 288° West 383 441 38,000  Level Fort Worth Center
01:54PM 34.2611 -101.9767 288° West 383 441 38,000  Level Fort Worth Center
01:56PM 34.3211 -102.1872 289° West 370 426 38,000  Level Albuquerque Center
01:57PM 34.3536 -102.3067 288° West 371 427 38,000  Level Albuquerque Center
01:58PM 34.3856 -102.4283 288° West 376 433 38,000  Level Albuquerque Center
01:59PM 34.4242 -102.5733 288° West 376 433 38,000  Level Albuquerque Center
02:00PM 34.4572 -102.6950 288° West 378 435 38,000  Level Albuquerque Center
02:02PM 34.4900 -102.8161 288° West 378 435 38,000  Level Albuquerque Center
02:03PM 34.5125 -102.9506 282° West 374 430 38,000  Level Albuquerque Center
02:04PM 34.5322 -103.0747 281° West 373 429 38,000  Level Albuquerque Center
02:05PM 34.5517 -103.2003 281° West 373 429 38,000  Level Albuquerque Center
02:06PM 34.5708 -103.3261 281° West 376 433 38,000  Level Albuquerque Center
02:07PM 34.5886 -103.4533 280° West 378 435 38,000  Level Albuquerque Center
02:08PM 34.6064 -103.5797 280° West 377 434 38,000  Level Albuquerque Center
02:09PM 34.6247 -103.7069 280° West 378 435 38,000  Level Albuquerque Center
02:10PM 34.6433 -103.8358 280° West 380 437 38,000  Level Albuquerque Center
02:11PM 34.6650 -103.9861 280° West 382 440 38,000  Level Albuquerque Center
02:12PM 34.6822 -104.1136 279° West 380 437 38,000  Level Albuquerque Center
02:13PM 34.6994 -104.2411 279° West 378 435 38,000  Level Albuquerque Center
02:14PM 34.7178 -104.3692 280° West 380 437 38,000  Level Albuquerque Center
02:15PM 34.7358 -104.4958 280° West 377 434 38,000  Level Albuquerque Center
02:16PM 34.7533 -104.6231 280° West 377 434 38,000  Level Albuquerque Center
02:17PM 34.7692 -104.7494 279° West 375 432 38,000  Level Albuquerque Center
02:18PM 34.7875 -104.8753 280° West 374 430 38,000  Level Albuquerque Center
02:19PM 34.8078 -105.0219 280° West 373 429 38,000  Level Albuquerque Center
02:20PM 34.8233 -105.1472 279° West 371 427 38,000  Level Albuquerque Center
02:21PM 34.8406 -105.2722 280° West 371 427 38,000  Level Albuquerque Center
02:22PM 34.8569 -105.3992 279° West 375 432 38,000  Level Albuquerque Center
02:23PM 34.8728 -105.5258 279° West 375 432 38,000  Level Albuquerque Center
02:24PM 34.8897 -105.6547 279° West 379 436 38,000  Level Albuquerque Center
02:25PM 34.9047 -105.7828 278° West 379 436 38,000  Level Albuquerque Center
02:26PM 34.9228 -105.9192 279° West 384 442 38,000  Level Albuquerque Center
02:27PM 34.9378 -106.0489 278° West 387 445 38,000  Level Albuquerque Center
02:28PM 34.9531 -106.1778 278° West 386 444 38,000  Level Albuquerque Center
02:29PM 34.9697 -106.3069 279° West 386 444 38,000  Level Albuquerque Center
02:30PM 34.9875 -106.4619 278° West 386 444 38,000  Level Albuquerque Center
02:31PM 35.0014 -106.5842 278° West 391 450 38,000  Level Albuquerque Center
02:33PM 35.0181 -106.7306 278° West 392 451 38,000  Level Albuquerque Center
02:34PM 35.0333 -106.8558 279° West 390 449 38,000  Level Albuquerque Center
02:35PM 35.0519 -106.9992 279° West 388 447 38,000  Level Albuquerque Center
02:36PM 35.0672 -107.1250 278° West 391 450 38,000  Level Albuquerque Center
02:37PM 35.0803 -107.2631 277° West 401 461 38,000  Level Albuquerque Center
02:38PM 35.0953 -107.3953 278° West 397 457 38,000  Level Albuquerque Center
02:39PM 35.1128 -107.5531 278° West 398 458 38,000  Level Albuquerque Center
02:40PM 35.1272 -107.6800 278° West 396 456 38,000  Level Albuquerque Center
02:41PM 35.1417 -107.8094 278° West 399 459 38,000  Level Albuquerque Center
02:42PM 35.1578 -107.9583 278° West 396 456 38,000  Level Albuquerque Center
02:43PM 35.1708 -108.0856 277° West 395 455 38,000  Level Albuquerque Center
02:44PM 35.1867 -108.2325 278° West 391 450 38,000  Level Albuquerque Center
02:45PM 35.2003 -108.3597 277° West 393 452 38,000  Level Albuquerque Center
02:46PM 35.2156 -108.5075 277° West 392 451 38,000  Level Albuquerque Center
02:47PM 35.2286 -108.6353 277° West 393 452 38,000  Level Albuquerque Center
02:48PM 35.2436 -108.7836 277° West 393 452 38,000  Level Albuquerque Center
02:49PM 35.2569 -108.9111 277° West 393 452 38,000  Level Albuquerque Center
02:50PM 35.2700 -109.0394 277° West 395 455 38,000  Level Albuquerque Center
02:51PM 35.2844 -109.1914 277° West 398 458 38,000  Level Albuquerque Center
02:52PM 35.2978 -109.3219 277° West 401 461 38,000  Level Albuquerque Center
02:53PM 35.3114 -109.4747 276° West 402 463 38,000  Level Albuquerque Center
02:54PM 35.3233 -109.6067 276° West 403 464 38,000  Level Albuquerque Center
02:55PM 35.3389 -109.7625 277° West 409 471 38,000  Level Albuquerque Center
02:56PM 35.3503 -109.8981 276° West 414 476 38,000  Level Albuquerque Center
02:57PM 35.3619 -110.0292 276° West 410 472 38,000  Level Albuquerque Center
02:58PM 35.3736 -110.1822 275° West 405 466 38,000  Level Albuquerque Center
02:59PM 35.3869 -110.3147 277° West 406 467 38,000  Level Albuquerque Center
03:00PM 35.3969 -110.4686 275° West 408 470 38,000  Level Albuquerque Center
03:01PM 35.4089 -110.6011 276° West 409 471 38,000 -600 Level Albuquerque Center
03:02PM 35.3933 -110.7547 263° West 411 473 36,800 -1,020 Descending Albuquerque Center
03:03PM 35.3833 -110.8900 265° West 413 475 35,900 -1,020 Descending Albuquerque Center
03:05PM 35.4014 -111.0469 278° West 416 479 34,800 -1,020 Descending Albuquerque Center
03:06PM 35.4158 -111.1847 277° West 421 484 33,900 -960 Descending Albuquerque Center
03:07PM 35.4308 -111.3428 277° West 420 483 32,900 -960 Descending Albuquerque Center
03:08PM 35.4436 -111.4636 277° West 431 496 32,000 -1,020 Descending Albuquerque Center
03:09PM 35.4578 -111.6319 276° West 421 484 30,900 -1,020 Descending Albuquerque Center
03:10PM 35.4714 -111.7717 277° West 416 479 30,000 -480 Descending Albuquerque Center
03:11PM 35.4842 -111.9136 276° West 420 483 30,000  Level Albuquerque Center
03:12PM 35.4981 -112.0556 277° West 421 484 30,000 -300 Level Albuquerque Center
03:13PM 35.5103 -112.1981 276° West 423 487 29,500 -900 Descending Albuquerque Center
03:14PM 35.5250 -112.3658 276° West 419 482 28,200 -780 Descending Albuquerque Center
03:15PM 35.5372 -112.5003 276° West 402 463 28,000 -120 Descending Albuquerque Center
03:16PM 35.5531 -112.6689 277° West 392 451 28,000  Level Los Angeles Center
03:17PM 35.5619 -112.7756 276° West 391 450 28,000  Level Los Angeles Center
03:18PM 35.5758 -112.9367 276° West 394 453 28,000  Level Los Angeles Center
03:19PM 35.5869 -113.0733 276° West 393 452 28,000  Level Los Angeles Center
03:20PM 35.5978 -113.2094 276° West 397 457 28,000 -120 Level Los Angeles Center
03:21PM 35.6094 -113.3475 276° West 402 463 27,800 -1,200 Descending Los Angeles Center
03:22PM 35.6214 -113.5058 275° West 393 452 25,600 -2,040 Descending Los Angeles Center
03:23PM 35.6358 -113.6300 278° West 378 435 23,600 -1,920 Descending Los Angeles Center
03:24PM 35.6544 -113.7503 281° West 367 422 21,600 -1,860 Descending Los Angeles Center
03:25PM 35.6706 -113.8661 280° West 349 402 19,800 -1,800 Descending Los Angeles Center
03:26PM 35.6858 -113.9722 280° West 333 383 18,000 -1,860 Descending Los Angeles Center
03:27PM 35.7033 -114.1006 280° West 323 372 16,000 -1,800 Descending Los Angeles Center
03:29PM 35.7189 -114.2094 280° West 314 361 14,400 -1,500 Descending Los Angeles Center
03:30PM 35.7317 -114.3117 279° West 306 352 13,000 -840 Descending Los Angeles Center
03:31PM 35.7606 -114.3914 294° West 259 298 12,700 -600 Descending Los Angeles Center
03:32PM 35.8253 -114.4214 339° North 250 288 11,800 -960 Descending Los Angeles Center
03:33PM 35.8892 -114.4517 339° North 247 284 10,700 -900 Descending Los Angeles Center
03:34PM 35.9633 -114.4861 339° North 239 275 10,000 -360 Descending Los Angeles Center
03:35PM 36.0206 -114.5133 339° North 234 269 10,000 -360 Level Los Angeles Center
03:36PM 36.0486 -114.5811 297° West 239 275 9,300 -840 Descending Los Angeles Center
03:37PM 36.0606 -114.6542 281° West 236 272 8,400 -720 Descending Los Angeles Center
03:38PM 36.0736 -114.7431 280° West 231 266 7,900 -720 Descending Los Angeles Center
03:39PM 36.0764 -114.8231 272° West 229 264 6,800 -900 Descending Los Angeles Center
03:40PM 36.0747 -114.9206 269° West 233 268 6,000 -840 Descending Los Angeles Center
03:41PM 36.0739 -114.9881 269° West 212 244 5,100 -1,260 Descending Los Angeles Center
03:42PM 36.0744 -115.0433 271° West 178 205 3,400 -1,320 Descending Los Angeles Center
03:43PM 36.0742 -115.0997 270° West 154 177 2,500 -720 Descending Los Angeles Center
03:44PM 36.0742 -115.1522 270° West 159 183 2,000 -480 Descending Los Angeles Center